createdAt,value
2023-01-13T00:00:01.521Z,84.96
2023-01-13T00:01:01.495Z,84.84
2023-01-13T00:02:01.492Z,88.26
2023-01-13T00:03:01.407Z,85.69
2023-01-13T00:04:01.384Z,83.76
2023-01-13T00:05:01.448Z,89.48
2023-01-13T00:06:01.306Z,77.50
2023-01-13T00:07:01.273Z,85.25
2023-01-13T00:08:01.230Z,82.86
2023-01-13T00:09:01.190Z,83.18
2023-01-13T00:10:01.173Z,84.05
2023-01-13T00:11:01.119Z,84.00
2023-01-13T00:12:01.085Z,83.04
2023-01-13T00:13:01.059Z,81.02
2023-01-13T00:14:01.017Z,83.24
2023-01-13T00:15:00.988Z,87.71
2023-01-13T00:16:01.025Z,85.39
2023-01-13T00:17:00.897Z,81.94
2023-01-13T00:18:00.862Z,87.32
2023-01-13T00:19:00.817Z,89.49
2023-01-13T00:20:00.787Z,87.96
2023-01-13T00:21:00.754Z,81.55
2023-01-13T00:22:00.706Z,80.15
2023-01-13T00:23:00.656Z,82.74
2023-01-13T00:24:00.627Z,87.76
2023-01-13T00:25:00.592Z,80.80
2023-01-13T00:26:00.560Z,77.89
2023-01-13T00:27:00.527Z,81.00
2023-01-13T00:28:00.476Z,83.02
2023-01-13T00:29:00.469Z,79.07
2023-01-13T00:30:00.405Z,80.58
2023-01-13T00:31:00.385Z,85.83
2023-01-13T00:32:00.334Z,79.35
2023-01-13T00:33:00.300Z,82.23
2023-01-13T00:34:00.256Z,80.85
2023-01-13T00:35:00.217Z,78.57
2023-01-13T00:36:00.191Z,84.00
2023-01-13T00:37:00.150Z,82.66
2023-01-13T00:38:00.120Z,80.40
2023-01-13T00:39:00.065Z,81.81
2023-01-13T00:40:00.030Z,82.08
2023-01-13T00:40:59.990Z,82.28
2023-01-13T00:41:59.950Z,82.06
2023-01-13T00:42:59.918Z,83.91
2023-01-13T00:43:59.873Z,81.80
2023-01-13T00:44:59.831Z,80.84
2023-01-13T00:45:59.798Z,80.98
2023-01-13T00:46:59.766Z,79.64
2023-01-13T00:47:59.717Z,82.15
2023-01-13T00:48:59.682Z,81.95
2023-01-13T00:49:59.646Z,78.63
2023-01-13T00:50:59.605Z,76.74
2023-01-13T00:51:59.549Z,81.17
2023-01-13T00:52:59.495Z,80.31
2023-01-13T00:53:59.475Z,82.86
2023-01-13T00:54:59.417Z,79.07
2023-01-13T00:55:59.389Z,79.42
2023-01-13T00:56:59.347Z,76.16
2023-01-13T00:57:59.300Z,76.79
2023-01-13T00:58:59.255Z,79.93
2023-01-13T00:59:59.207Z,87.34
2023-01-13T01:00:59.253Z,85.67
2023-01-13T01:01:59.219Z,84.09
2023-01-13T01:02:59.078Z,84.25
2023-01-13T01:03:59.039Z,84.26
2023-01-13T01:04:59.004Z,77.70
2023-01-13T01:05:59.055Z,85.65
2023-01-13T01:06:58.905Z,86.55
2023-01-13T03:55:51.494Z,80.43
2023-01-13T03:56:51.441Z,80.46
2023-01-13T03:57:51.428Z,80.75
2023-01-13T03:58:51.367Z,80.90
2023-01-13T03:59:51.335Z,80.49
2023-01-13T04:00:51.308Z,80.96
2023-01-13T04:01:51.445Z,79.09
2023-01-13T04:02:51.213Z,80.71
2023-01-13T04:03:51.237Z,79.35
2023-01-13T04:04:51.180Z,83.37
2023-01-13T04:05:51.108Z,79.66
2023-01-13T04:06:51.083Z,84.24
2023-01-13T04:07:51.038Z,84.87
2023-01-13T04:08:50.985Z,82.91
2023-01-13T04:09:50.989Z,82.54
2023-01-13T04:10:50.935Z,78.87
2023-01-13T04:11:50.865Z,76.61
2023-01-13T04:12:50.835Z,82.35
2023-01-13T04:13:50.800Z,80.90
2023-01-13T04:14:50.749Z,85.05
2023-01-13T04:15:50.796Z,80.85
2023-01-13T04:16:50.681Z,79.81
2023-01-13T04:17:50.633Z,81.69
2023-01-13T04:18:50.591Z,83.39
2023-01-13T04:19:50.548Z,80.34
2023-01-13T04:20:50.515Z,82.68
2023-01-13T04:21:50.483Z,82.07
2023-01-13T04:22:50.433Z,81.89
2023-01-13T04:23:50.399Z,79.73
2023-01-13T04:24:50.355Z,80.84
2023-01-13T04:25:50.325Z,81.88
2023-01-13T04:26:50.275Z,82.22
2023-01-13T04:27:50.235Z,82.51
2023-01-13T04:28:50.204Z,82.48
2023-01-13T04:29:50.182Z,79.82
2023-01-13T04:30:50.208Z,78.23
2023-01-13T04:31:50.106Z,82.71
2023-01-13T04:32:50.053Z,83.01
2023-01-13T04:33:50.034Z,83.35
2023-01-13T04:34:49.995Z,79.81
2023-01-13T04:35:49.953Z,77.48
2023-01-13T04:36:49.904Z,81.87
2023-01-13T04:37:49.888Z,79.88
2023-01-13T04:38:49.844Z,80.11
2023-01-13T04:39:49.796Z,80.12
2023-01-13T04:40:49.787Z,81.21
2023-01-13T04:41:49.718Z,81.32
2023-01-13T04:42:49.679Z,82.85
2023-01-13T04:43:49.643Z,83.03
2023-01-13T04:44:49.595Z,81.09
2023-01-13T04:45:49.599Z,79.59
2023-01-13T04:46:49.534Z,82.68
2023-01-13T04:47:49.505Z,82.08
2023-01-13T04:48:49.455Z,82.82
2023-01-13T04:49:49.423Z,81.29
2023-01-13T04:50:49.411Z,75.16
2023-01-13T04:51:49.375Z,79.20
2023-01-13T04:52:49.335Z,77.99
2023-01-13T04:53:49.296Z,80.67
2023-01-13T04:54:49.255Z,79.20
2023-01-13T04:55:49.220Z,78.48
2023-01-13T04:56:49.187Z,82.45
2023-01-13T04:57:49.147Z,81.83
2023-01-13T04:58:49.110Z,81.57
2023-01-13T04:59:49.074Z,81.58
2023-01-13T05:00:49.033Z,79.40
2023-01-13T05:01:49.063Z,80.04
2023-01-13T05:02:48.944Z,79.31
2023-01-13T05:03:48.912Z,81.73
2023-01-13T08:08:41.111Z,155.47
2023-01-13T08:09:41.117Z,164.14
2023-01-13T08:10:41.018Z,159.09
2023-01-13T08:11:40.981Z,149.14
2023-01-13T08:12:40.924Z,140.24
2023-01-13T08:14:40.841Z,142.45
2023-01-13T08:15:40.785Z,144.85
2023-01-13T08:16:40.803Z,143.94
2023-01-13T08:17:40.697Z,132.40
2023-01-13T08:18:40.646Z,140.39
2023-01-13T08:19:40.604Z,143.19
2023-01-13T08:20:40.597Z,145.05
2023-01-13T08:21:40.528Z,140.96
2023-01-13T08:22:40.474Z,128.03
2023-01-13T08:23:40.415Z,133.42
2023-01-13T08:24:40.388Z,141.46
2023-01-13T08:25:40.324Z,144.35
2023-01-13T08:26:40.296Z,145.69
2023-01-13T08:27:40.253Z,141.13
2023-01-13T08:28:40.198Z,136.28
2023-01-13T08:29:40.158Z,142.92
2023-01-13T08:30:40.247Z,143.32
2023-01-13T08:31:40.062Z,143.23
2023-01-13T08:32:40.010Z,136.79
2023-01-13T08:33:39.975Z,135.65
2023-01-13T08:34:39.932Z,140.52
2023-01-13T08:35:39.874Z,144.39
2023-01-13T08:36:39.832Z,144.65
2023-01-13T08:37:39.778Z,146.71
2023-01-13T08:38:39.729Z,144.51
2023-01-13T08:39:39.693Z,146.14
2023-01-13T08:40:39.658Z,150.25
2023-01-13T08:41:39.598Z,152.13
2023-01-13T08:42:39.549Z,159.35
2023-01-13T08:43:39.582Z,151.24
2023-01-13T08:45:39.391Z,177.65
2023-01-13T08:46:39.335Z,179.83
2023-01-13T08:47:39.282Z,171.95
2023-01-13T08:48:39.226Z,175.35
2023-01-13T08:49:39.200Z,173.78
2023-01-13T08:51:39.047Z,204.13
2023-01-13T08:52:38.995Z,193.03
2023-01-13T08:53:38.949Z,190.10
2023-01-13T11:38:29.623Z,140.81
2023-01-13T11:39:29.561Z,145.44
2023-01-13T11:40:29.505Z,148.94
2023-01-13T11:41:29.436Z,159.51
2023-01-13T11:42:29.370Z,161.06
2023-01-13T11:43:29.313Z,160.28
2023-01-13T11:44:29.270Z,160.52
2023-01-13T11:45:29.231Z,161.16
2023-01-13T11:46:29.176Z,162.26
2023-01-13T11:47:29.097Z,163.69
2023-01-13T11:48:29.007Z,171.94
2023-01-13T11:49:28.944Z,171.15
2023-01-13T14:35:20.502Z,131.36
2023-01-13T15:05:19.063Z,125.16
2023-01-13T15:06:18.989Z,128.20
2023-01-13T15:07:18.969Z,127.07
2023-01-13T17:15:13.228Z,115.45
2023-01-13T17:20:13.018Z,111.16
2023-01-13T17:21:12.948Z,114.17
2023-01-13T17:22:12.905Z,115.68
2023-01-13T17:23:12.899Z,114.38
2023-01-13T17:24:12.827Z,113.37
2023-01-13T17:25:12.777Z,112.41
2023-01-13T17:26:12.732Z,111.55
2023-01-13T17:27:12.687Z,112.02
2023-01-13T17:28:12.665Z,112.25
2023-01-13T17:29:12.620Z,112.05
2023-01-13T17:30:12.599Z,112.17
2023-01-13T17:31:12.531Z,110.96
2023-01-13T17:32:12.507Z,111.01
2023-01-13T17:33:12.467Z,108.84
2023-01-13T17:34:12.440Z,111.93
2023-01-13T17:35:12.382Z,112.74
2023-01-13T17:36:12.342Z,109.36
2023-01-13T17:37:12.307Z,111.77
2023-01-13T17:38:12.266Z,111.31
2023-01-13T17:39:12.231Z,110.49
2023-01-13T17:40:12.232Z,110.10
2023-01-13T17:41:12.138Z,107.38
2023-01-13T17:42:12.099Z,106.95
2023-01-13T17:43:12.048Z,109.06
2023-01-13T17:44:12.020Z,106.73
2023-01-13T17:45:11.998Z,105.28
2023-01-13T17:46:11.992Z,105.78
2023-01-13T17:47:11.948Z,106.26
2023-01-13T17:48:11.849Z,106.96
2023-01-13T17:49:11.819Z,107.52
2023-01-13T17:50:11.762Z,102.68
2023-01-13T17:51:11.738Z,103.30
2023-01-13T17:52:11.685Z,105.61
2023-01-13T17:53:11.642Z,105.64
2023-01-13T17:54:11.605Z,104.11
2023-01-13T17:55:11.556Z,106.10
2023-01-13T17:56:11.543Z,104.19
2023-01-13T17:57:11.481Z,107.19
2023-01-13T17:58:11.462Z,105.25
2023-01-13T17:59:11.418Z,105.76
2023-01-13T18:00:11.371Z,103.40
2023-01-13T18:01:11.479Z,106.40
2023-01-13T18:02:11.487Z,108.55
2023-01-13T18:03:11.258Z,102.29
2023-01-13T18:04:11.216Z,104.05
2023-01-13T18:05:11.177Z,106.22
2023-01-13T18:06:11.186Z,105.29
2023-01-13T18:07:11.109Z,105.47
2023-01-13T18:08:11.081Z,102.09
2023-01-13T18:09:11.026Z,106.82
2023-01-13T18:10:10.990Z,107.23
2023-01-13T18:11:10.972Z,108.37
2023-01-13T18:12:10.913Z,106.65
2023-01-13T18:13:10.863Z,109.50
2023-01-13T18:14:10.845Z,107.40
2023-01-13T18:15:10.785Z,105.01
2023-01-13T18:16:10.792Z,107.99
2023-01-13T18:17:10.725Z,106.58
2023-01-13T18:18:10.686Z,106.70
2023-01-13T18:19:10.628Z,105.78
2023-01-13T18:20:10.601Z,106.75
2023-01-13T18:21:10.566Z,108.08
2023-01-13T18:22:10.537Z,109.07
2023-01-13T18:23:10.509Z,108.72
2023-01-13T18:24:10.481Z,107.19
2023-01-13T18:25:10.432Z,108.46
2023-01-13T18:26:10.399Z,109.43
2023-01-13T18:27:10.364Z,109.02
2023-01-13T18:28:10.321Z,104.74
2023-01-13T18:29:10.267Z,108.49
2023-01-13T18:30:10.264Z,109.60
2023-01-13T18:31:10.231Z,108.17
2023-01-13T18:32:10.178Z,107.47
2023-01-13T18:33:10.133Z,105.39
2023-01-13T18:34:10.123Z,107.77
2023-01-13T18:35:10.071Z,106.88
2023-01-13T18:36:10.034Z,107.45
2023-01-13T18:37:10.015Z,107.56
2023-01-13T18:38:09.972Z,107.72
2023-01-13T18:39:09.931Z,107.06
2023-01-13T18:40:09.890Z,104.33
2023-01-13T18:41:09.846Z,106.35
2023-01-13T18:42:09.841Z,104.00
2023-01-13T18:43:09.804Z,107.89
2023-01-13T18:44:09.744Z,106.77
2023-01-13T18:45:10.638Z,106.79
2023-01-13T18:46:09.679Z,106.69
2023-01-13T18:47:09.635Z,107.84
2023-01-13T18:48:09.598Z,104.54
2023-01-13T18:49:09.560Z,103.86
2023-01-13T18:50:09.523Z,105.62
2023-01-13T18:51:09.461Z,108.57
2023-01-13T18:52:09.465Z,103.75
2023-01-13T18:53:09.387Z,103.06
2023-01-13T18:54:09.349Z,102.98
2023-01-13T18:55:09.313Z,105.89
2023-01-13T18:56:09.284Z,105.41
2023-01-13T18:57:09.247Z,104.41
2023-01-13T18:58:09.198Z,102.86
2023-01-13T18:59:09.159Z,104.01
2023-01-13T19:00:09.137Z,104.87
2023-01-13T19:01:09.150Z,104.59
2023-01-13T19:02:09.174Z,103.72
2023-01-13T19:03:09.059Z,106.33
2023-01-13T19:04:08.969Z,106.13
2023-01-13T19:05:08.922Z,104.99
2023-01-13T19:06:08.891Z,104.12
2023-01-13T19:07:08.873Z,105.54
2023-01-13T19:08:08.827Z,105.79
2023-01-13T19:09:08.801Z,104.68
2023-01-13T19:10:08.737Z,102.04
2023-01-13T19:11:08.701Z,104.36
2023-01-13T19:12:08.683Z,102.64
2023-01-13T19:13:08.644Z,103.07
2023-01-13T19:14:08.589Z,104.87
2023-01-13T19:15:08.533Z,103.29
2023-01-13T19:16:08.539Z,104.39
2023-01-13T19:17:08.461Z,102.65
2023-01-13T19:18:08.428Z,103.81
2023-01-13T19:19:08.390Z,104.76
2023-01-13T19:20:08.363Z,104.35
2023-01-13T19:21:08.321Z,103.94
2023-01-13T19:22:08.295Z,104.84
2023-01-13T19:23:08.249Z,103.93
2023-01-13T19:24:08.189Z,102.70
2023-01-13T19:25:08.147Z,102.82
2023-01-13T19:26:08.119Z,106.41
2023-01-13T19:27:08.067Z,100.55
2023-01-13T19:28:08.074Z,105.24
2023-01-13T19:29:08.005Z,101.53
2023-01-13T19:30:07.964Z,104.99
2023-01-13T19:31:08.037Z,104.19
2023-01-13T19:32:07.887Z,103.75
2023-01-13T19:33:07.839Z,106.88
2023-01-13T19:34:07.827Z,104.41
2023-01-13T19:35:07.759Z,103.85
2023-01-13T19:36:07.734Z,103.74
2023-01-13T19:37:07.676Z,105.63
2023-01-13T19:38:07.678Z,104.18
2023-01-13T19:39:07.605Z,104.51
2023-01-13T19:40:07.581Z,104.52
2023-01-13T19:42:07.503Z,103.22
2023-01-13T19:43:07.478Z,101.18
2023-01-13T19:44:07.440Z,103.32
2023-01-13T19:45:07.414Z,100.96
2023-01-13T19:46:07.394Z,96.73
2023-01-13T19:47:07.321Z,97.11
2023-01-13T19:48:07.299Z,97.89
2023-01-13T19:49:07.243Z,98.42
2023-01-13T19:50:07.219Z,100.22
2023-01-13T19:51:07.169Z,102.56
2023-01-13T19:52:07.122Z,99.92
2023-01-13T19:53:07.122Z,100.54
2023-01-13T19:54:07.065Z,103.14
2023-01-13T19:55:07.026Z,103.32
2023-01-13T19:56:07.001Z,102.26
2023-01-13T19:57:06.950Z,101.54
2023-01-13T19:58:06.908Z,101.97
2023-01-13T19:59:06.866Z,103.52
2023-01-13T20:00:06.832Z,103.31
2023-01-13T20:01:06.837Z,103.34
2023-01-13T20:02:06.770Z,101.71
2023-01-13T20:03:06.749Z,99.70
2023-01-13T20:04:06.700Z,100.62
2023-01-13T20:05:06.668Z,105.57
2023-01-13T20:06:06.622Z,102.86
2023-01-13T20:07:06.586Z,101.94
2023-01-13T20:08:06.562Z,99.78
2023-01-13T20:09:06.536Z,100.08
2023-01-13T20:10:06.486Z,99.05
2023-01-13T20:11:06.421Z,101.42
2023-01-13T20:12:06.396Z,101.73
2023-01-13T20:13:06.355Z,100.94
2023-01-13T20:14:06.326Z,104.09
2023-01-13T20:15:06.291Z,101.89
2023-01-13T20:16:06.304Z,102.47
2023-01-13T20:17:06.213Z,101.15
2023-01-13T20:18:06.167Z,101.36
2023-01-13T20:19:06.162Z,101.61
2023-01-13T20:20:06.109Z,103.05
2023-01-13T20:21:06.071Z,96.83
2023-01-13T20:22:06.031Z,91.96
2023-01-13T20:23:06.012Z,94.25
2023-01-13T20:24:05.984Z,95.82
2023-01-13T20:25:05.965Z,99.61
2023-01-13T20:26:07.508Z,99.95
2023-01-13T20:27:05.892Z,92.03
2023-01-13T20:28:05.850Z,90.98
2023-01-13T20:29:05.807Z,92.31
2023-01-13T20:30:05.774Z,91.84
2023-01-13T20:31:05.784Z,97.60
2023-01-13T20:32:05.699Z,93.67
2023-01-13T20:34:05.681Z,88.59
2023-01-13T20:35:05.626Z,90.41
2023-01-13T20:36:05.582Z,92.29
2023-01-13T20:37:05.556Z,94.65
2023-01-13T20:38:05.526Z,93.14
2023-01-13T20:39:05.485Z,86.03
2023-01-13T20:40:05.459Z,88.88
2023-01-13T20:41:05.403Z,87.25
2023-01-13T20:42:05.394Z,94.14
2023-01-13T20:43:05.341Z,90.95
2023-01-13T20:44:05.332Z,80.78
2023-01-13T20:45:05.291Z,81.10
2023-01-13T20:46:05.273Z,88.36
2023-01-13T20:47:05.289Z,89.71
2023-01-13T20:48:05.183Z,93.54
2023-01-13T20:49:05.154Z,85.15
2023-01-13T20:50:05.124Z,83.34
2023-01-13T20:51:05.091Z,85.98
2023-01-13T20:52:05.052Z,85.36
2023-01-13T20:53:05.018Z,89.70
2023-01-13T20:54:04.987Z,85.76
2023-01-13T20:55:04.964Z,83.04
2023-01-13T20:56:04.935Z,80.95
2023-01-13T20:57:04.895Z,82.07
2023-01-13T20:58:04.855Z,88.71
2023-01-13T20:59:04.822Z,88.78
2023-01-13T21:00:04.798Z,83.58
2023-01-13T21:01:04.878Z,78.15
2023-01-13T21:02:04.720Z,82.31
2023-01-13T21:03:04.678Z,82.88
2023-01-13T21:04:04.688Z,86.08
2023-01-13T21:05:04.646Z,88.65
2023-01-13T21:06:04.590Z,82.55
2023-01-13T21:07:04.595Z,75.66
2023-01-13T21:08:04.544Z,75.83
2023-01-13T21:09:04.491Z,80.48
2023-01-13T21:10:04.484Z,84.06
2023-01-13T21:11:04.571Z,84.17
2023-01-13T21:12:04.383Z,73.03
2023-01-13T21:13:04.363Z,72.65
2023-01-13T21:14:04.320Z,80.79
2023-01-13T21:15:04.300Z,82.37
2023-01-13T21:16:04.272Z,83.88
2023-01-13T21:17:04.239Z,82.14
2023-01-13T21:18:04.203Z,71.78
2023-01-13T21:19:04.166Z,73.88
2023-01-13T21:20:04.693Z,78.39
2023-01-13T21:21:04.081Z,83.93
2023-01-13T21:22:04.063Z,73.10
2023-01-13T21:23:04.029Z,70.33
2023-01-13T21:24:03.985Z,69.27
2023-01-13T21:25:03.961Z,74.95
2023-01-13T21:26:03.926Z,79.52
2023-01-13T21:27:03.889Z,79.33
2023-01-13T21:28:03.876Z,71.74
2023-01-13T21:29:03.866Z,69.87
2023-01-13T21:30:03.781Z,73.18
2023-01-13T21:31:03.813Z,71.13
2023-01-13T21:32:03.711Z,74.61
2023-01-13T21:33:03.665Z,74.50
2023-01-13T21:34:03.631Z,69.57
2023-01-13T21:35:03.604Z,71.73
2023-01-13T21:36:03.570Z,71.22
2023-01-13T21:37:03.521Z,71.47
2023-01-13T21:38:03.492Z,71.70
2023-01-13T21:39:03.481Z,70.79
2023-01-13T21:40:03.438Z,63.36
2023-01-13T21:41:03.402Z,60.70
2023-01-13T21:42:03.355Z,65.28
2023-01-13T21:43:03.317Z,69.14
2023-01-13T21:44:03.289Z,70.66
2023-01-13T21:45:03.265Z,61.91
2023-01-13T21:46:05.403Z,62.24
2023-01-13T21:47:03.187Z,63.68
2023-01-13T21:48:03.191Z,62.16
2023-01-13T21:49:03.127Z,70.04
2023-01-13T21:50:03.080Z,64.99
2023-01-13T21:51:03.062Z,56.65
2023-01-13T21:52:03.028Z,57.45
2023-01-13T21:53:03.023Z,59.73
2023-01-13T21:54:02.991Z,65.65
2023-01-13T21:55:02.930Z,63.88
2023-01-13T21:56:02.894Z,57.62
2023-01-13T21:57:02.871Z,54.62
2023-01-13T21:58:02.831Z,55.38
2023-01-13T21:59:02.796Z,60.41
2023-01-13T22:00:02.802Z,62.92
2023-01-13T22:01:02.888Z,57.28
2023-01-13T22:02:24.212Z,48.47
2023-01-13T22:04:02.639Z,50.21
2023-01-13T22:05:02.591Z,53.08
2023-01-13T22:06:02.612Z,57.54
2023-01-13T22:07:02.544Z,58.01
2023-01-13T22:08:02.506Z,48.84
2023-01-13T22:09:02.473Z,47.72
2023-01-13T22:10:02.432Z,57.03
2023-01-13T22:11:02.434Z,62.93
2023-01-13T22:12:02.358Z,55.47
2023-01-13T22:13:02.325Z,52.61
2023-01-13T22:14:02.284Z,49.87
2023-01-13T22:15:02.261Z,50.65
2023-01-13T22:16:02.231Z,61.32
2023-01-13T22:17:02.210Z,60.14
2023-01-13T22:18:02.184Z,56.80
2023-01-13T22:19:02.156Z,53.01
2023-01-13T22:20:02.103Z,58.37
2023-01-13T22:21:02.052Z,54.38
2023-01-13T22:22:02.037Z,60.96
2023-01-13T22:23:01.987Z,55.84
2023-01-13T22:24:01.948Z,50.20
2023-01-13T22:25:01.918Z,53.17
2023-01-13T22:26:01.910Z,55.44
2023-01-13T22:27:01.849Z,57.65
2023-01-13T22:28:01.826Z,56.36
2023-01-13T22:29:01.793Z,50.23
2023-01-13T22:30:01.754Z,51.28
2023-01-13T22:31:01.716Z,52.23
2023-01-13T22:32:01.715Z,58.71
2023-01-13T22:33:01.647Z,61.36
2023-01-13T22:34:01.600Z,53.33
2023-01-13T22:35:01.614Z,48.44
2023-01-13T22:36:01.560Z,51.17
2023-01-13T22:37:01.551Z,56.21
2023-01-13T22:38:01.475Z,57.70
2023-01-13T22:39:01.443Z,55.23
2023-01-13T22:40:01.432Z,47.27
2023-01-13T22:41:01.370Z,50.64
2023-01-13T22:43:01.332Z,56.08
2023-01-13T22:44:01.296Z,58.30
2023-01-13T22:45:01.261Z,55.28
2023-01-13T22:46:01.264Z,47.44
2023-01-13T22:47:01.199Z,52.29
2023-01-13T22:48:01.174Z,55.86
2023-01-13T22:49:01.133Z,59.77
2023-01-13T22:50:01.090Z,55.57
2023-01-13T23:43:59.327Z,61.34
2023-01-13T23:44:59.269Z,56.54
2023-01-13T23:45:59.244Z,56.95
2023-01-13T23:46:59.217Z,52.89
2023-01-13T23:47:59.176Z,53.81
2023-01-13T23:48:59.143Z,54.48
2023-01-13T23:49:59.112Z,61.22
2023-01-13T23:50:59.095Z,54.99
2023-01-13T23:51:59.043Z,50.93
2023-01-13T23:52:59.012Z,54.27
2023-01-13T23:53:59.011Z,52.14
2023-01-13T23:54:58.970Z,59.97
2023-01-13T23:55:58.947Z,57.91
2023-01-13T23:56:58.912Z,52.55
